Aeroporto :
LOGIN :

Iscrizione | Disclaimer

   EN    FR    IT 

 










Sommario :    VFR   VFR Marginale   IFR   IFR Intensivo   IFR Molto Intensivo
Visibilità : 
Base nubi : 
>= 8 km
>= 3000ft
5 / 8 km
1000 / 3000 ft
1500m / 5 km
500 / 1000 ft
800 / 1500m
200 / 500 ft
< 800m
< 200 ft
Simboli :   Temporali  Nebbia  Neve Forte  Precipitazioni Forti  Vento > 20 kt
SIGMETs :   Varie  Temporali  Ghiacco  Turbolenza  Onda orograficha  Ceneri Vulcaniche






- Altitudine del aeroporto : 511 ft
- Codice IATA : LHA


EDTL - Lahr Schwarzwald

ULTIMO METAR :
  • 180920Z VRB03KT 9999 SCT009 OVC020 18/17 Q1013

METARs OBSOLETI :
  • 180850Z VRB02KT 9999 FEW007 OVC023 18/16 Q1013
  • 180820Z VRB02KT 9999 FEW011 OVC026 18/17 Q1013
  • 180750Z VRB03KT 8000 FEW022 OVC028 18/17 Q1014
  • 180720Z VRB02KT 7000 -RA FEW007 BKN030 17/17 Q1014

TAF TAF EDTL
Valido dal 18 a 09 ore il 18 a 18 ore UTC


180800Z 1809/1818 VRB03KT 9999 BKN030
PROB40
TEMPO 1809/1818 SHRA BKN040CB
BECMG 1809/1811 01008KT
PROB30
TEMPO 1813/1816 4000 TSRA SCT012CB



MetMap, La meteo Aeronautica in un colpo d'occhio ! - Copyright ORBIFLY Dicembre 2007 - Disclaimer

ORBIFLY MET'MAP TEAM :

Programmazione e sviluppo : Alexandra Zaïnal
Concezione : Baudouin d'Aumeries
Supporto tecnico e logistico : Manuel Goepfert
Aiuto : Marc-Olivier Méhu
Aiuto per la traduzione : Arnaldo La Scala




FONTI E CREDITI :

   NOAA